Time;durP1;ratioP1;P1;durP2;ratioP2;P2;SDS_P1;SDS_P2;PMS_P1;PMS_P2;Temp;Humidity;BMP_temperature;BMP_pressure;BME280_temperature;BME280_humidity;BME280_pressure;Samples;Min_cycle;Max_cycle;Signal;HPM_P1;HPM_P2
2023/06/16 00:01:46;;;;;;;1.20;1.20;;;12.60;99.90;;;;;;5035579;28;20432;-70
2023/06/16 00:04:17;;;;;;;0.80;0.80;;;12.50;99.90;;;;;;5069948;28;20935;-70
2023/06/16 00:06:49;;;;;;;1.25;1.20;;;12.40;1.00;;;;;;5041116;28;20993;-71
2023/06/16 00:09:16;;;;;;;1.30;0.80;;;12.40;99.90;;;;;;5053376;28;20437;-70
2023/06/16 00:11:43;;;;;;;0.95;0.95;;;12.50;99.90;;;;;;5042025;28;20468;-70
2023/06/16 00:14:10;;;;;;;1.53;0.80;;;12.50;99.90;;;;;;5032365;28;20503;-70
2023/06/16 00:16:37;;;;;;;1.80;0.90;;;12.60;1.00;;;;;;5036553;28;20455;-70
2023/06/16 00:19:03;;;;;;;0.98;0.98;;;12.50;1.00;;;;;;5065696;28;20439;-70
2023/06/16 00:21:38;;;;;;;0.90;0.77;;;12.50;1.00;;;;;;5040608;28;20769;-70
2023/06/16 00:24:06;;;;;;;1.20;1.20;;;12.30;1.00;;;;;;5069755;28;20544;-70
2023/06/16 00:26:33;;;;;;;0.93;0.88;;;12.20;1.00;;;;;;5070711;28;20431;-70
2023/06/16 00:29:00;;;;;;;1.30;1.10;;;12.20;1.00;;;;;;5034857;28;20693;-70
2023/06/16 00:31:27;;;;;;;1.13;0.80;;;12.10;1.00;;;;;;5038106;28;20904;-70
2023/06/16 00:33:53;;;;;;;0.82;0.82;;;12.10;1.00;;;;;;5041419;28;20425;-70
2023/06/16 00:36:23;;;;;;;1.25;1.10;;;12.00;1.00;;;;;;5038969;28;20429;-70
2023/06/16 00:38:49;;;;;;;0.80;0.80;;;12.00;1.00;;;;;;5036794;28;20458;-70
2023/06/16 00:41:16;;;;;;;0.98;0.90;;;11.90;1.00;;;;;;5037992;28;20487;-70
2023/06/16 00:43:43;;;;;;;1.25;1.08;;;11.80;1.00;;;;;;5034633;28;20966;-70
2023/06/16 00:46:20;;;;;;;0.90;0.90;;;11.80;99.90;;;;;;5040189;28;20425;-70
2023/06/16 00:48:47;;;;;;;1.10;1.00;;;11.90;99.90;;;;;;5034569;28;20900;-70
2023/06/16 00:51:14;;;;;;;1.10;1.10;;;11.90;99.90;;;;;;5039385;28;20491;-70
2023/06/16 00:53:41;;;;;;;0.60;0.60;;;11.90;99.90;;;;;;5038265;28;20440;-70
2023/06/16 00:56:07;;;;;;;0.50;0.50;;;12.00;99.90;;;;;;5037013;28;20429;-70
2023/06/16 00:58:37;;;;;;;0.70;0.70;;;11.90;99.90;;;;;;5038665;28;20475;-70
2023/06/16 01:01:06;;;;;;;0.98;0.90;;;11.90;99.90;;;;;;5034721;28;20429;-70
2023/06/16 01:03:33;;;;;;;1.20;0.90;;;11.80;99.90;;;;;;5036206;28;20433;-70
2023/06/16 01:06:06;;;;;;;0.80;0.80;;;11.60;99.90;;;;;;5037578;28;20520;-70
2023/06/16 01:08:50;;;;;;;0.80;0.80;;;11.40;99.90;;;;;;5038543;28;20546;-70
2023/06/16 01:11:29;;;;;;;1.60;0.90;;;11.20;1.00;;;;;;5042069;28;20432;-70
2023/06/16 01:14:25;;;;;;;1.02;0.80;;;11.00;1.00;;;;;;5034335;28;20456;-70
2023/06/16 01:16:53;;;;;;;0.80;0.80;;;11.00;5.90;;;;;;5059176;28;20445;-70
2023/06/16 01:19:33;;;;;;;0.93;0.88;;;11.10;1.00;;;;;;5043478;28;20620;-70
2023/06/16 01:22:39;;;;;;;0.70;0.70;;;11.10;99.90;;;;;;5040394;28;20845;-70
2023/06/16 01:25:10;;;;;;;0.98;0.90;;;11.20;34.10;;;;;;5037633;28;20566;-70
2023/06/16 01:27:39;;;;;;;0.57;0.57;;;11.30;1.00;;;;;;5039335;28;20433;-70
2023/06/16 01:30:07;;;;;;;0.93;0.85;;;11.20;1.00;;;;;;5039556;28;20991;-70
2023/06/16 01:32:35;;;;;;;0.95;0.95;;;11.20;1.00;;;;;;5041427;28;20421;-70
2023/06/16 01:35:02;;;;;;;1.10;1.10;;;11.20;1.00;;;;;;5043500;28;20439;-70
2023/06/16 01:37:30;;;;;;;0.85;0.85;;;11.20;1.00;;;;;;5040042;28;20524;-70
2023/06/16 01:39:57;;;;;;;1.08;1.00;;;11.10;1.00;;;;;;5038630;28;21205;-70
2023/06/16 01:42:26;;;;;;;0.88;0.88;;;11.00;1.00;;;;;;5043105;28;20514;-70
2023/06/16 01:44:53;;;;;;;0.73;0.73;;;11.00;99.90;;;;;;5039839;28;20454;-70
2023/06/16 01:47:20;;;;;;;1.10;1.10;;;11.00;99.90;;;;;;5045048;28;20520;-70
2023/06/16 01:49:49;;;;;;;1.67;0.98;;;11.10;99.90;;;;;;5042473;28;20935;-70
2023/06/16 01:52:16;;;;;;;1.23;1.07;;;11.10;99.90;;;;;;5040594;28;20464;-70
2023/06/16 01:54:43;;;;;;;0.88;0.88;;;11.10;99.90;;;;;;5041722;28;20464;-70
2023/06/16 01:57:11;;;;;;;0.90;0.90;;;11.00;99.90;;;;;;5042223;28;20471;-70
2023/06/16 01:59:38;;;;;;;1.50;0.77;;;11.00;99.90;;;;;;5039786;28;20516;-70
2023/06/16 02:02:29;;;;;;;0.85;0.85;;;11.00;99.90;;;;;;5071179;28;20439;-70
2023/06/16 02:05:03;;;;;;;1.10;0.75;;;11.00;99.90;;;;;;5042336;28;20444;-70
2023/06/16 02:07:37;;;;;;;0.67;0.60;;;10.90;99.90;;;;;;5037795;28;20433;-70
2023/06/16 02:10:05;;;;;;;1.10;0.90;;;10.80;99.90;;;;;;5037089;28;20431;-70
2023/06/16 02:12:32;;;;;;;1.58;1.13;;;10.70;1.00;;;;;;5044503;28;20517;-70
2023/06/16 02:15:00;;;;;;;1.25;1.08;;;10.60;1.00;;;;;;5041529;28;20433;-70
2023/06/16 02:17:27;;;;;;;0.60;0.60;;;10.50;99.90;;;;;;5041846;28;20931;-70
2023/06/16 02:19:54;;;;;;;0.70;0.60;;;10.50;1.00;;;;;;5042259;28;20423;-70
2023/06/16 02:22:22;;;;;;;1.13;1.02;;;10.50;55.80;;;;;;5040265;28;20464;-70
2023/06/16 02:24:48;;;;;;;1.03;1.03;;;10.40;99.90;;;;;;5041986;28;20624;-70
2023/06/16 02:27:17;;;;;;;0.70;0.70;;;10.40;99.90;;;;;;5039181;28;20491;-70
2023/06/16 02:29:47;;;;;;;0.98;0.98;;;10.30;4.70;;;;;;5037431;28;20448;-70
2023/06/16 02:32:13;;;;;;;1.35;1.20;;;10.30;1.00;;;;;;5042161;28;20525;-70
2023/06/16 02:34:43;;;;;;;1.00;0.80;;;10.20;99.90;;;;;;5039374;28;20425;-70
2023/06/16 02:37:12;;;;;;;1.10;1.05;;;10.20;99.90;;;;;;5041851;28;20517;-70
2023/06/16 02:39:40;;;;;;;1.13;1.08;;;10.30;99.90;;;;;;5039153;28;20479;-70
2023/06/16 02:42:10;;;;;;;0.88;0.88;;;10.30;1.00;;;;;;5040107;28;20425;-70
2023/06/16 02:44:38;;;;;;;3.10;0.90;;;10.30;1.00;;;;;;5041531;28;20458;-70
2023/06/16 02:47:08;;;;;;;2.10;1.30;;;10.30;1.00;;;;;;5036909;28;20429;-70
2023/06/16 02:49:35;;;;;;;1.30;1.27;;;10.30;1.00;;;;;;5034379;28;20648;-70
2023/06/16 02:52:02;;;;;;;2.47;1.20;;;10.40;1.00;;;;;;5040866;28;20508;-70
2023/06/16 02:54:31;;;;;;;0.85;0.85;;;10.40;1.00;;;;;;5041630;28;20436;-70
2023/06/16 02:56:58;;;;;;;1.23;1.05;;;10.40;1.00;;;;;;5039828;28;20923;-70
2023/06/16 02:59:25;;;;;;;0.90;0.90;;;10.30;97.60;;;;;;5039068;28;20997;-70
2023/06/16 03:01:51;;;;;;;1.38;1.30;;;10.30;99.90;;;;;;5039527;28;20437;-70
2023/06/16 03:04:18;;;;;;;1.10;1.00;;;10.30;1.00;;;;;;5040381;28;20516;-70
2023/06/16 03:06:47;;;;;;;1.30;1.07;;;10.40;99.90;;;;;;5039464;28;20434;-70
2023/06/16 03:09:16;;;;;;;2.75;0.82;;;10.40;99.90;;;;;;5039350;28;20977;-70
2023/06/16 03:11:46;;;;;;;3.55;1.20;;;10.40;99.90;;;;;;5074974;28;20468;-70
2023/06/16 03:14:12;;;;;;;1.00;1.00;;;10.30;99.90;;;;;;5028488;28;20433;-71
2023/06/16 03:16:40;;;;;;;1.48;1.27;;;10.30;1.00;;;;;;5038074;28;20520;-70
2023/06/16 03:19:07;;;;;;;1.25;1.20;;;10.30;1.00;;;;;;5040419;28;20433;-70
2023/06/16 03:21:34;;;;;;;1.10;1.10;;;10.30;74.80;;;;;;5040591;28;20527;-70
2023/06/16 03:24:01;;;;;;;1.55;1.15;;;10.40;99.90;;;;;;5043318;28;21503;-70
2023/06/16 03:26:28;;;;;;;1.60;1.30;;;10.50;99.90;;;;;;5039342;28;20433;-70
2023/06/16 03:28:55;;;;;;;0.93;0.93;;;10.50;34.90;;;;;;5039531;28;20422;-70
2023/06/16 03:31:22;;;;;;;2.40;1.00;;;10.50;1.00;;;;;;5039802;28;20502;-70
2023/06/16 03:33:48;;;;;;;1.48;1.15;;;10.50;1.00;;;;;;5038893;28;20507;-69
2023/06/16 03:36:16;;;;;;;0.95;0.95;;;10.60;1.00;;;;;;5030050;28;20526;-69
2023/06/16 03:38:43;;;;;;;1.70;1.05;;;10.60;1.00;;;;;;5030780;28;20429;-69
2023/06/16 03:41:09;;;;;;;1.42;1.33;;;10.70;1.00;;;;;;5029698;28;20992;-69
2023/06/16 03:43:36;;;;;;;1.07;0.97;;;10.70;1.00;;;;;;5034754;28;21038;-69
2023/06/16 03:46:03;;;;;;;1.70;1.30;;;10.70;1.00;;;;;;5038385;28;20611;-69
2023/06/16 03:48:30;;;;;;;1.50;1.08;;;10.80;99.90;;;;;;5040782;28;20788;-69
2023/06/16 03:50:58;;;;;;;0.85;0.85;;;10.90;99.90;;;;;;5039976;28;20512;-68
2023/06/16 03:53:27;;;;;;;0.95;0.95;;;10.90;99.90;;;;;;5039319;28;20421;-69
2023/06/16 03:55:53;;;;;;;1.42;1.38;;;11.00;99.90;;;;;;5038558;28;20479;-69
2023/06/16 03:58:20;;;;;;;0.90;0.90;;;11.00;99.90;;;;;;5042452;28;20508;-69
2023/06/16 04:00:47;;;;;;;1.02;1.00;;;11.10;99.90;;;;;;5029307;28;22242;-69
2023/06/16 04:03:15;;;;;;;2.80;1.38;;;11.20;99.90;;;;;;5037044;28;20451;-69
2023/06/16 04:05:42;;;;;;;1.38;1.08;;;11.20;99.90;;;;;;5037537;28;20971;-69
2023/06/16 04:08:11;;;;;;;0.97;0.97;;;11.20;1.00;;;;;;5040994;28;20494;-69
2023/06/16 04:10:38;;;;;;;1.50;1.40;;;11.30;1.00;;;;;;5039208;28;20432;-69
2023/06/16 04:13:05;;;;;;;2.25;1.35;;;11.30;1.00;;;;;;5041332;28;20915;-69
2023/06/16 04:15:32;;;;;;;0.97;0.97;;;11.40;1.00;;;;;;5039046;28;20934;-69
2023/06/16 04:17:59;;;;;;;1.80;1.00;;;11.50;99.90;;;;;;5038783;28;20425;-68
2023/06/16 04:20:26;;;;;;;1.70;1.17;;;11.60;1.00;;;;;;5038755;28;20433;-69
2023/06/16 04:22:53;;;;;;;1.17;1.17;;;11.60;99.90;;;;;;5039251;28;20526;-69
2023/06/16 04:25:21;;;;;;;1.10;0.98;;;11.70;1.00;;;;;;5039339;28;20428;-69
2023/06/16 04:27:51;;;;;;;3.97;1.20;;;11.80;99.90;;;;;;5037263;28;20436;-69
2023/06/16 04:30:22;;;;;;;1.08;1.00;;;11.90;1.00;;;;;;5037592;28;20545;-69
2023/06/16 04:32:54;;;;;;;1.05;1.02;;;12.00;66.70;;;;;;5038979;28;20533;-70
2023/06/16 04:35:22;;;;;;;1.30;1.05;;;12.10;99.90;;;;;;5037649;28;20756;-69
2023/06/16 04:37:49;;;;;;;3.20;1.00;;;12.30;99.90;;;;;;5039698;28;20514;-69
2023/06/16 04:40:16;;;;;;;1.15;1.05;;;12.50;67.20;;;;;;5038726;28;20436;-69
2023/06/16 04:42:47;;;;;;;1.73;1.13;;;12.80;99.90;;;;;;5040301;28;20435;-70
2023/06/16 04:45:14;;;;;;;1.00;0.63;;;13.40;99.90;;;;;;5041058;28;20562;-70
2023/06/16 04:47:41;;;;;;;0.93;0.93;;;14.10;1.00;;;;;;5042060;28;20498;-70
2023/06/16 04:50:09;;;;;;;1.13;1.02;;;14.80;1.00;;;;;;5042457;28;20429;-70
2023/06/16 04:52:37;;;;;;;2.42;1.17;;;15.40;99.90;;;;;;5042695;28;20439;-70
2023/06/16 04:55:04;;;;;;;2.72;1.15;;;16.00;99.90;;;;;;5040990;28;20522;-70
2023/06/16 04:57:34;;;;;;;1.25;0.95;;;16.70;99.90;;;;;;5042696;28;20429;-70
2023/06/16 05:00:06;;;;;;;2.22;1.10;;;17.20;99.90;;;;;;5040905;28;20460;-70
2023/06/16 05:02:33;;;;;;;1.00;1.00;;;17.90;99.90;;;;;;5042640;28;21203;-70
2023/06/16 05:05:01;;;;;;;1.15;0.95;;;18.60;99.90;;;;;;5042697;28;20483;-70
2023/06/16 05:07:29;;;;;;;1.55;1.23;;;19.20;99.90;;;;;;5041571;28;20428;-70
2023/06/16 05:09:58;;;;;;;1.45;1.40;;;19.80;99.90;;;;;;5039801;28;20873;-70
2023/06/16 05:12:25;;;;;;;0.90;0.90;;;20.30;99.90;;;;;;5046265;28;20487;-70
2023/06/16 05:14:52;;;;;;;1.10;1.10;;;20.70;99.90;;;;;;5040430;28;20823;-70
2023/06/16 05:17:19;;;;;;;1.30;1.20;;;21.30;99.70;;;;;;5043016;28;20863;-70
2023/06/16 05:19:46;;;;;;;1.77;1.27;;;21.80;98.90;;;;;;5029627;28;20442;-70
2023/06/16 05:22:14;;;;;;;2.38;1.08;;;22.40;98.00;;;;;;5032023;28;20534;-70
2023/06/16 05:24:40;;;;;;;0.82;0.82;;;22.90;96.90;;;;;;5040097;28;20429;-71
2023/06/16 05:27:07;;;;;;;1.40;1.30;;;23.40;96.00;;;;;;5041901;28;20437;-70
2023/06/16 05:29:34;;;;;;;2.53;1.20;;;23.90;95.60;;;;;;5038797;28;20456;-71
2023/06/16 05:32:01;;;;;;;1.88;1.02;;;24.30;94.00;;;;;;5040934;28;20429;-71
2023/06/16 05:34:27;;;;;;;0.98;0.98;;;24.80;93.20;;;;;;5042457;28;20459;-71
2023/06/16 05:36:54;;;;;;;1.60;0.98;;;24.90;87.80;;;;;;5041375;28;20429;-71
2023/06/16 05:39:23;;;;;;;1.67;1.50;;;24.90;84.10;;;;;;5037347;28;20435;-71
2023/06/16 05:41:50;;;;;;;1.20;1.10;;;25.10;83.40;;;;;;5042884;28;20459;-71
2023/06/16 05:44:17;;;;;;;1.30;1.30;;;25.10;80.30;;;;;;5042390;28;20441;-71
2023/06/16 05:46:43;;;;;;;1.50;1.40;;;25.10;79.50;;;;;;5042307;28;20780;-71
2023/06/16 05:49:10;;;;;;;1.35;1.25;;;24.80;75.60;;;;;;5040301;28;20425;-71
2023/06/16 05:51:37;;;;;;;1.50;1.23;;;24.90;75.80;;;;;;5042154;28;20493;-71
2023/06/16 05:54:04;;;;;;;1.20;1.20;;;25.20;76.20;;;;;;5039966;28;20594;-71
2023/06/16 05:56:31;;;;;;;1.30;1.10;;;25.60;77.50;;;;;;5042149;28;20425;-71
2023/06/16 05:58:57;;;;;;;1.27;1.27;;;26.10;77.40;;;;;;5038003;28;20438;-71
2023/06/16 06:01:24;;;;;;;4.63;1.40;;;26.60;78.90;;;;;;5032669;28;20484;-71
2023/06/16 06:03:51;;;;;;;1.58;1.48;;;26.60;77.90;;;;;;5032257;28;20433;-71
2023/06/16 06:06:18;;;;;;;1.48;1.38;;;25.90;72.60;;;;;;5034984;28;20483;-71
2023/06/16 06:08:45;;;;;;;1.30;1.20;;;25.80;71.80;;;;;;5031985;28;20495;-71
2023/06/16 06:11:11;;;;;;;1.50;1.40;;;25.90;71.60;;;;;;5039847;28;21475;-71
2023/06/16 06:13:38;;;;;;;1.25;1.15;;;26.20;72.40;;;;;;5042980;28;20805;-71
2023/06/16 06:16:07;;;;;;;2.03;1.45;;;26.60;73.50;;;;;;5049218;28;21018;-71
2023/06/16 06:18:34;;;;;;;1.50;1.40;;;26.30;70.80;;;;;;5044537;28;20511;-71
2023/06/16 06:21:01;;;;;;;1.50;1.40;;;26.50;70.80;;;;;;5041552;28;21167;-71
2023/06/16 06:23:28;;;;;;;1.30;1.20;;;26.80;72.40;;;;;;5039333;28;20628;-71
2023/06/16 06:25:57;;;;;;;2.15;1.48;;;26.60;73.70;;;;;;5037711;28;20459;-71
2023/06/16 06:28:24;;;;;;;1.45;1.35;;;27.00;71.30;;;;;;5038700;28;20429;-71
2023/06/16 06:30:51;;;;;;;2.40;1.30;;;27.30;71.40;;;;;;5041415;28;20524;-71
2023/06/16 06:33:18;;;;;;;1.00;1.00;;;27.50;71.90;;;;;;5036853;28;20434;-71
2023/06/16 06:35:45;;;;;;;1.83;1.17;;;27.90;72.40;;;;;;5040852;28;20425;-71
2023/06/16 06:38:12;;;;;;;1.98;1.10;;;28.10;73.00;;;;;;5037321;28;20618;-71
2023/06/16 06:40:38;;;;;;;1.30;1.20;;;28.30;73.80;;;;;;5070830;28;20938;-71
2023/06/16 06:43:05;;;;;;;1.33;1.27;;;28.30;72.70;;;;;;5073146;28;20946;-71
2023/06/16 06:45:32;;;;;;;1.10;1.10;;;28.50;72.70;;;;;;5040000;28;20443;-70
2023/06/16 06:48:01;;;;;;;2.20;1.70;;;28.30;70.10;;;;;;5040881;28;20504;-71
2023/06/16 06:50:28;;;;;;;1.23;1.07;;;28.00;67.80;;;;;;5035837;28;20425;-70
2023/06/16 06:52:55;;;;;;;1.37;1.27;;;28.00;67.40;;;;;;5039668;28;20496;-71
2023/06/16 06:55:22;;;;;;;1.27;1.00;;;28.00;66.70;;;;;;5035701;28;20850;-71
2023/06/16 06:57:49;;;;;;;1.65;0.90;;;27.80;65.60;;;;;;5035306;28;20432;-71
2023/06/16 07:00:16;;;;;;;0.90;0.90;;;27.90;66.40;;;;;;5037405;28;20437;-71
2023/06/16 07:02:47;;;;;;;1.40;1.30;;;28.30;67.50;;;;;;5036682;28;20461;-71
2023/06/16 07:05:14;;;;;;;1.13;1.02;;;28.40;68.90;;;;;;5041236;28;21150;-71
2023/06/16 07:07:41;;;;;;;1.40;1.30;;;28.50;68.30;;;;;;5034856;28;20951;-71
2023/06/16 07:10:10;;;;;;;1.00;1.00;;;28.60;68.40;;;;;;5035490;28;21150;-71
2023/06/16 07:12:37;;;;;;;1.58;1.48;;;28.60;67.80;;;;;;5040006;28;20439;-71
2023/06/16 07:15:04;;;;;;;1.10;1.10;;;28.00;63.90;;;;;;5035531;28;20426;-71
2023/06/16 07:17:32;;;;;;;1.30;1.30;;;28.10;64.40;;;;;;5041176;28;20449;-71
2023/06/16 07:20:00;;;;;;;0.90;0.90;;;28.30;66.30;;;;;;5035546;28;20435;-71
2023/06/16 07:22:28;;;;;;;1.20;1.20;;;28.50;67.00;;;;;;5040702;28;20429;-71
2023/06/16 07:24:54;;;;;;;1.08;1.05;;;28.10;65.30;;;;;;5026812;28;20896;-70
2023/06/16 07:27:21;;;;;;;1.02;1.02;;;28.50;66.20;;;;;;5036721;28;20544;-71
2023/06/16 07:29:48;;;;;;;0.93;0.93;;;28.50;65.00;;;;;;5034422;28;20972;-70
2023/06/16 07:32:15;;;;;;;1.17;0.93;;;28.70;66.70;;;;;;5065759;28;20513;-71
2023/06/16 07:34:42;;;;;;;1.70;1.00;;;28.70;66.30;;;;;;5039426;28;20524;-71
2023/06/16 07:37:08;;;;;;;1.40;1.30;;;28.80;67.10;;;;;;5038915;28;21215;-71
2023/06/16 07:39:38;;;;;;;0.90;0.90;;;29.30;69.80;;;;;;5039212;28;20429;-71
2023/06/16 07:42:05;;;;;;;1.50;1.10;;;29.70;71.40;;;;;;5038246;28;20429;-71
2023/06/16 07:44:32;;;;;;;1.45;1.00;;;29.90;73.10;;;;;;5042432;28;20557;-71
2023/06/16 07:47:00;;;;;;;1.05;1.05;;;29.40;69.90;;;;;;5036024;28;20451;-71
2023/06/16 07:49:29;;;;;;;1.13;1.13;;;29.50;69.30;;;;;;5038493;28;20457;-71
2023/06/16 07:51:56;;;;;;;0.95;0.95;;;29.40;69.50;;;;;;5036581;28;20429;-71
2023/06/16 07:54:23;;;;;;;1.58;1.00;;;29.50;68.50;;;;;;5034276;28;20429;-71
2023/06/16 07:56:53;;;;;;;0.90;0.90;;;29.20;67.90;;;;;;5036343;28;20429;-71
2023/06/16 07:59:21;;;;;;;1.00;1.00;;;28.80;64.70;;;;;;5037467;28;20503;-71
2023/06/16 08:01:48;;;;;;;0.80;0.80;;;28.30;62.50;;;;;;5038889;28;20516;-71
2023/06/16 08:04:15;;;;;;;0.80;0.80;;;28.80;64.50;;;;;;5039342;28;20435;-71
2023/06/16 08:06:42;;;;;;;1.92;1.17;;;29.20;66.80;;;;;;5038027;28;20499;-71
2023/06/16 08:09:10;;;;;;;1.05;1.05;;;29.30;67.00;;;;;;5039937;28;20518;-71
2023/06/16 08:11:36;;;;;;;0.85;0.85;;;29.40;66.40;;;;;;5037849;28;20441;-71
2023/06/16 08:14:03;;;;;;;0.95;0.95;;;29.50;66.90;;;;;;5033286;28;20433;-71
2023/06/16 08:16:30;;;;;;;1.10;1.10;;;29.10;65.10;;;;;;5035953;28;20429;-71
2023/06/16 08:18:59;;;;;;;1.40;0.85;;;29.40;66.90;;;;;;5038873;28;20931;-71
2023/06/16 08:21:26;;;;;;;1.45;1.00;;;29.70;68.10;;;;;;5035890;28;20497;-71
2023/06/16 08:23:52;;;;;;;1.10;1.10;;;29.70;67.70;;;;;;5037068;28;20927;-71
2023/06/16 08:26:19;;;;;;;0.80;0.80;;;30.10;69.80;;;;;;5035599;28;20433;-71
2023/06/16 08:28:47;;;;;;;1.20;1.10;;;29.90;70.00;;;;;;5034866;28;20510;-71
2023/06/16 08:31:14;;;;;;;1.00;1.00;;;29.80;68.70;;;;;;5034873;28;20487;-71
2023/06/16 08:33:41;;;;;;;0.82;0.82;;;29.80;68.20;;;;;;5037381;28;20934;-71
2023/06/16 08:36:08;;;;;;;0.85;0.85;;;30.10;69.10;;;;;;5068555;28;20532;-71
2023/06/16 08:38:39;;;;;;;0.90;0.90;;;30.00;69.60;;;;;;5036202;28;20508;-71
2023/06/16 08:41:08;;;;;;;1.23;0.98;;;29.80;67.20;;;;;;5037437;28;20429;-71
2023/06/16 08:43:38;;;;;;;0.98;0.98;;;29.60;66.30;;;;;;5034725;28;20437;-71
2023/06/16 08:46:08;;;;;;;1.40;1.10;;;29.70;66.10;;;;;;5035956;28;20428;-71
2023/06/16 08:48:36;;;;;;;1.00;0.80;;;30.20;68.50;;;;;;5037273;28;20459;-71
2023/06/16 08:51:10;;;;;;;3.10;0.85;;;30.40;69.50;;;;;;5031907;28;20509;-71
2023/06/16 08:53:40;;;;;;;1.50;0.90;;;30.30;68.60;;;;;;5034674;28;20440;-71
2023/06/16 08:56:10;;;;;;;1.50;1.40;;;30.10;68.30;;;;;;5033624;28;20487;-71
2023/06/16 08:58:40;;;;;;;1.40;1.30;;;30.10;69.60;;;;;;5033107;28;20504;-71
2023/06/16 09:01:07;;;;;;;1.70;1.00;;;30.40;70.20;;;;;;5066416;28;20437;-71
2023/06/16 09:03:35;;;;;;;1.08;0.98;;;30.60;70.50;;;;;;5036059;28;20437;-71
2023/06/16 09:06:09;;;;;;;0.93;0.93;;;30.70;85.50;;;;;;5030297;28;20531;-71
2023/06/16 09:08:36;;;;;;;1.90;1.02;;;30.20;67.80;;;;;;5031938;28;20429;-71
2023/06/16 09:11:22;;;;;;;1.33;1.10;;;29.80;64.90;;;;;;5037755;28;20525;-71
2023/06/16 09:13:51;;;;;;;0.90;0.90;;;29.80;65.00;;;;;;5036114;28;20437;-71
2023/06/16 09:16:21;;;;;;;0.90;0.90;;;29.70;64.70;;;;;;5036731;28;21123;-71
2023/06/16 09:18:50;;;;;;;0.80;0.80;;;29.70;64.80;;;;;;5036044;28;20460;-71
2023/06/16 09:21:20;;;;;;;0.80;0.80;;;29.90;66.00;;;;;;5036189;28;20428;-71
2023/06/16 09:23:57;;;;;;;1.08;1.08;;;30.10;67.50;;;;;;5037609;28;20741;-71
2023/06/16 09:26:30;;;;;;;1.20;1.10;;;30.30;68.90;;;;;;5028460;28;20486;-72
2023/06/16 09:28:57;;;;;;;0.88;0.88;;;30.60;70.70;;;;;;5031604;28;20437;-72
2023/06/16 09:31:27;;;;;;;1.10;1.05;;;30.90;72.00;;;;;;5036166;28;20436;-71
2023/06/16 09:34:05;;;;;;;1.10;1.10;;;31.10;72.90;;;;;;5039431;28;20765;-70
2023/06/16 09:36:32;;;;;;;0.90;0.90;;;30.80;70.20;;;;;;5039741;28;20425;-70
2023/06/16 09:39:00;;;;;;;0.90;0.90;;;30.40;67.40;;;;;;5038736;28;20516;-71
2023/06/16 09:41:27;;;;;;;0.90;0.90;;;29.90;65.70;;;;;;5040417;28;20429;-70
2023/06/16 09:43:59;;;;;;;0.90;0.90;;;30.10;66.30;;;;;;5037235;28;20478;-71
2023/06/16 09:46:26;;;;;;;0.80;0.80;;;30.40;68.20;;;;;;5036431;28;21154;-70
2023/06/16 09:48:52;;;;;;;0.93;0.90;;;30.50;67.60;;;;;;5038258;28;20438;-70
2023/06/16 09:51:23;;;;;;;2.40;1.30;;;30.10;66.20;;;;;;5040110;28;20518;-70
2023/06/16 09:53:51;;;;;;;0.75;0.75;;;30.10;65.60;;;;;;5036674;28;20439;-70
2023/06/16 09:56:19;;;;;;;0.88;0.88;;;30.30;66.80;;;;;;5038788;28;20809;-70
2023/06/16 09:58:47;;;;;;;1.08;1.00;;;30.50;68.30;;;;;;5042644;28;20434;-70
2023/06/16 10:01:15;;;;;;;0.80;0.80;;;30.80;69.40;;;;;;5069423;28;20911;-70
2023/06/16 10:03:46;;;;;;;1.10;1.00;;;30.80;70.10;;;;;;5036316;28;20433;-71
2023/06/16 10:06:18;;;;;;;1.95;1.13;;;30.70;68.90;;;;;;5039263;28;20444;-70
2023/06/16 10:08:49;;;;;;;0.90;0.90;;;30.70;68.60;;;;;;5036555;28;20441;-70
2023/06/16 10:11:19;;;;;;;1.65;1.13;;;30.50;68.30;;;;;;5042397;28;20437;-70
2023/06/16 10:13:53;;;;;;;1.40;1.00;;;30.40;66.90;;;;;;5037945;28;20799;-70
2023/06/16 10:16:27;;;;;;;0.90;0.90;;;30.40;66.80;;;;;;5036164;28;20438;-71
2023/06/16 10:18:58;;;;;;;1.10;1.10;;;30.40;67.50;;;;;;5038716;28;20457;-70
2023/06/16 10:21:26;;;;;;;1.20;1.10;;;30.10;65.30;;;;;;5042057;28;20977;-72
2023/06/16 10:23:53;;;;;;;0.90;0.90;;;30.10;65.50;;;;;;5037761;28;20519;-72
2023/06/16 10:26:21;;;;;;;0.75;0.75;;;30.30;66.10;;;;;;5039521;28;20518;-71
2023/06/16 10:28:49;;;;;;;3.65;1.17;;;30.30;66.50;;;;;;5040081;28;20433;-71
2023/06/16 10:31:18;;;;;;;1.40;1.10;;;29.80;64.80;;;;;;5039799;28;20699;-70
2023/06/16 10:34:05;;;;;;;0.90;0.80;;;29.20;60.10;;;;;;5039026;28;20429;-71
2023/06/16 10:36:38;;;;;;;1.35;1.23;;;28.90;58.60;;;;;;5037948;28;20429;-71
2023/06/16 10:39:12;;;;;;;1.52;0.90;;;29.70;63.20;;;;;;5040149;28;20799;-72
2023/06/16 10:41:59;;;;;;;0.82;0.82;;;30.80;69.40;;;;;;5045615;28;20441;-72
2023/06/16 10:44:29;;;;;;;0.88;0.88;;;30.90;70.10;;;;;;5041020;28;20425;-69
2023/06/16 10:47:16;;;;;;;1.20;1.20;;;30.10;64.50;;;;;;5034342;28;20846;-71
2023/06/16 10:50:16;;;;;;;0.90;0.90;;;29.10;58.70;;;;;;5032625;28;20437;-70
2023/06/16 10:52:43;;;;;;;0.95;0.95;;;28.00;53.30;;;;;;5039627;28;20433;-71
2023/06/16 10:55:17;;;;;;;0.70;0.70;;;27.20;49.10;;;;;;5037444;28;21001;-72
2023/06/16 10:57:46;;;;;;;0.93;0.93;;;27.40;49.70;;;;;;5037372;28;20439;-71
2023/06/16 11:00:14;;;;;;;1.00;0.90;;;28.40;56.00;;;;;;5054866;28;20428;-69
2023/06/16 11:02:51;;;;;;;1.23;1.13;;;29.50;62.20;;;;;;5036692;28;20484;-69
2023/06/16 11:05:22;;;;;;;0.95;0.95;;;30.30;66.50;;;;;;5038503;28;20451;-70
2023/06/16 11:08:02;;;;;;;1.00;1.00;;;30.80;69.20;;;;;;5037832;28;20433;-69
2023/06/16 11:10:30;;;;;;;0.65;0.65;;;30.30;65.40;;;;;;5055929;28;20871;-70
2023/06/16 11:12:57;;;;;;;1.00;0.90;;;29.20;59.30;;;;;;5041111;28;20943;-69
2023/06/16 11:15:23;;;;;;;1.00;1.00;;;28.40;55.00;;;;;;5037858;28;20425;-69
2023/06/16 11:17:51;;;;;;;0.80;0.80;;;27.80;51.20;;;;;;5036638;28;20421;-70
2023/06/16 11:20:20;;;;;;;1.10;1.10;;;27.80;51.60;;;;;;5038806;28;20425;-69
2023/06/16 11:22:49;;;;;;;1.52;1.13;;;28.60;56.40;;;;;;5038805;28;20835;-70
2023/06/16 11:25:16;;;;;;;1.10;1.00;;;29.20;59.00;;;;;;5035795;28;20449;-70
2023/06/16 11:27:43;;;;;;;1.00;0.80;;;29.80;62.10;;;;;;5026489;28;20501;-70
2023/06/16 11:30:10;;;;;;;0.70;0.70;;;30.50;66.30;;;;;;5039774;28;20512;-71
2023/06/16 11:32:37;;;;;;;0.80;0.80;;;30.80;67.00;;;;;;5038024;28;20475;-70
2023/06/16 11:35:05;;;;;;;1.00;1.00;;;30.70;65.90;;;;;;5037331;28;20496;-70
2023/06/16 11:37:52;;;;;;;0.77;0.77;;;30.10;62.30;;;;;;5038384;28;20461;-70
2023/06/16 11:40:32;;;;;;;1.00;1.00;;;29.80;60.40;;;;;;5038334;28;21172;-70
2023/06/16 11:43:04;;;;;;;1.30;0.98;;;30.20;63.60;;;;;;5037379;28;20437;-70
2023/06/16 11:45:38;;;;;;;0.93;0.90;;;30.80;65.90;;;;;;5042160;28;20429;-70
2023/06/16 11:48:07;;;;;;;1.00;1.00;;;30.90;66.20;;;;;;5039543;28;20465;-70
2023/06/16 11:50:36;;;;;;;1.00;1.00;;;30.80;66.10;;;;;;5039290;28;20439;-70
2023/06/16 11:53:13;;;;;;;1.00;1.00;;;31.20;68.70;;;;;;5038068;28;20811;-71
2023/06/16 11:55:39;;;;;;;1.10;1.02;;;30.90;66.40;;;;;;5039128;28;20908;-70
2023/06/16 11:58:06;;;;;;;0.77;0.77;;;29.80;59.70;;;;;;5037838;28;20429;-70
2023/06/16 12:00:33;;;;;;;0.80;0.80;;;29.00;54.60;;;;;;5036452;28;20433;-70
2023/06/16 12:03:02;;;;;;;0.88;0.88;;;28.80;54.60;;;;;;5067671;28;20438;-70
2023/06/16 12:05:30;;;;;;;0.63;0.63;;;28.80;55.20;;;;;;5037614;28;20429;-70
2023/06/16 12:07:56;;;;;;;0.80;0.80;;;29.20;56.70;;;;;;5038334;28;20452;-71
2023/06/16 12:10:24;;;;;;;0.80;0.80;;;29.80;60.30;;;;;;5036965;28;20744;-70
2023/06/16 12:12:51;;;;;;;0.80;0.80;;;30.30;61.70;;;;;;5043126;28;20475;-70
2023/06/16 12:15:22;;;;;;;0.77;0.65;;;30.60;63.30;;;;;;5036505;28;20437;-70
2023/06/16 12:17:53;;;;;;;0.80;0.80;;;30.20;61.50;;;;;;5036235;28;21294;-70
2023/06/16 12:20:22;;;;;;;0.75;0.75;;;29.20;54.70;;;;;;5040468;28;20435;-70
2023/06/16 12:22:54;;;;;;;1.48;1.00;;;29.00;54.30;;;;;;5040633;28;20426;-69
2023/06/16 12:25:22;;;;;;;1.20;0.98;;;29.20;55.00;;;;;;5067074;28;21060;-70
2023/06/16 12:27:51;;;;;;;2.10;0.90;;;29.70;57.50;;;;;;5041165;28;20549;-70
2023/06/16 12:30:19;;;;;;;0.65;0.63;;;30.10;59.70;;;;;;5037763;28;20432;-70
2023/06/16 12:32:47;;;;;;;0.80;0.80;;;30.40;63.00;;;;;;5035957;28;20561;-70
2023/06/16 12:35:26;;;;;;;0.68;0.65;;;31.00;64.80;;;;;;5035470;28;20428;-70
2023/06/16 12:37:58;;;;;;;0.90;0.90;;;31.40;66.60;;;;;;5037425;28;20465;-70
2023/06/16 12:40:31;;;;;;;1.00;1.00;;;31.20;66.20;;;;;;5039473;28;20673;-70
2023/06/16 12:43:23;;;;;;;0.60;0.60;;;31.10;65.60;;;;;;5035736;28;21010;-71
2023/06/16 12:45:50;;;;;;;0.90;0.90;;;31.50;67.80;;;;;;5038120;28;20566;-70
2023/06/16 12:48:17;;;;;;;1.02;0.80;;;32.20;72.00;;;;;;5038619;28;20447;-71
2023/06/16 12:50:44;;;;;;;2.50;0.80;;;32.40;73.60;;;;;;5022531;28;20462;-71
2023/06/16 12:53:11;;;;;;;0.90;0.90;;;32.50;74.40;;;;;;5041717;28;20527;-70
2023/06/16 12:55:38;;;;;;;0.63;0.63;;;32.40;74.50;;;;;;5036836;28;21018;-70
2023/06/16 12:58:05;;;;;;;0.80;0.80;;;31.80;70.70;;;;;;5039636;28;20962;-70